Date,TemperatureHighF,TemperatureAvgF,TemperatureLowF,DewpointHighF,DewpointAvgF,DewpointLowF,HumidityHigh,HumidityAvg,HumidityLow,PressureMaxIn,PressureMinIn,WindSpeedMaxMPH,WindSpeedAvgMPH,GustSpeedMaxMPH,PrecipitationSumIn
2013-1-1,27.0,20.9,12.6,21.5,15.5,8.4,89,79,64,30.35,30.18,15,3,17,0.06
2013-1-2,36.9,22.5,8.9,25.9,16.6,5.2,89,78,62,30.34,30.19,13,4,18,0.03
2013-1-3,40.0,29.9,22.8,30.7,24.0,19.2,90,79,63,30.46,30.30,10,2,15,0.01
2013-1-4,44.4,30.0,16.4,28.1,22.5,13.1,92,75,50,30.46,30.31,12,4,23,0.01
2013-1-5,43.7,36.5,31.9,35.4,29.8,24.8,85,77,70,30.31,30.10,24,6,24,0.01
2013-1-6,41.7,31.8,21.7,26.2,22.2,17.1,84,69,46,30.42,30.19,15,4,21,0.00
2013-1-7,50.5,36.1,24.2,28.9,24.2,19.2,82,64,40,30.36,30.11,13,6,23,0.00
2013-1-8,54.3,42.3,29.0,37.5,30.2,23.2,82,63,43,30.14,30.01,15,5,23,0.00
2013-1-9,55.3,40.7,27.8,36.8,31.8,25.2,91,73,43,30.44,30.16,8,2,13,0.00
2013-1-10,50.9,42.6,35.4,49.3,39.1,29.0,95,88,70,30.39,29.76,18,5,22,0.24
2013-1-11,61.2,55.3,49.3,49.1,46.7,44.5,95,74,57,29.79,29.61,24,9,27,0.01
2013-1-12,58.0,37.4,25.3,46.7,27.3,18.5,89,68,39,30.10,29.69,21,7,26,0.00
2013-1-13,26.8,20.8,13.3,18.2,12.0,7.0,77,69,56,30.38,30.06,18,6,19,0.08
2013-1-14,29.6,16.7,4.1,14.2,7.7,0.1,89,69,44,30.58,30.41,6,2,12,0.02
2013-1-15,31.3,17.6,6.0,17.9,9.9,2.2,89,73,48,30.49,30.25,6,2,10,0.02
2013-1-16,42.7,27.5,12.5,26.8,17.8,8.5,87,68,46,30.26,30.08,12,5,23,0.03
2013-1-17,46.6,35.6,28.3,29.6,26.9,22.7,91,72,46,30.51,30.18,8,4,17,0.00
2013-1-18,56.4,41.9,31.1,33.1,29.1,25.0,79,62,39,30.48,30.10,24,8,35,0.00
2013-1-19,63.1,49.2,41.9,37.0,32.5,28.7,71,54,31,30.22,30.00,26,8,26,0.00
2013-1-20,42.4,31.0,24.1,29.1,16.7,10.3,74,56,35,30.40,30.24,19,5,19,0.00
2013-1-21,27.2,19.9,13.1,13.8,7.5,1.0,84,60,37,30.49,30.42,9,4,20,0.00
2013-1-22,30.8,21.1,13.1,11.8,6.9,3.2,74,55,39,30.49,30.34,9,4,13,0.00
2013-1-23,50.9,28.6,11.9,25.4,16.3,7.7,86,63,33,30.41,30.22,21,3,21,0.00
2013-1-24,28.4,22.4,11.8,15.8,9.1,3.6,71,57,42,30.57,30.25,15,7,24,0.00
2013-1-25,48.2,33.8,21.4,21.7,16.8,10.5,66,51,33,30.27,30.19,7,2,13,0.00
2013-1-26,55.9,40.7,24.8,28.7,24.8,18.9,84,56,31,30.35,30.16,15,4,15,0.00
2013-1-27,63.2,50.5,38.5,52.1,43.1,25.1,88,77,46,30.16,29.79,31,8,31,0.14
2013-1-28,75.1,64.8,57.1,60.2,56.6,53.2,88,75,54,29.87,29.69,26,8,30,0.00
2013-1-29,68.3,55.2,38.4,60.4,51.3,36.7,95,87,73,29.69,29.43,17,7,28,1.45
2013-1-30,37.5,29.7,25.3,35.9,25.5,18.4,94,84,73,30.02,29.44,30,11,32,0.01
2013-1-31,28.4,21.5,10.2,20.8,13.7,2.6,87,72,56,30.54,29.99,21,8,36,0.00
2013-2-1,28.0,19.0,5.9,15.6,8.9,1.6,85,65,50,30.56,30.26,10,4,13,0.00
2013-2-2,48.0,36.6,25.9,33.0,25.8,16.2,79,65,53,30.26,30.09,17,5,23,0.01
2013-2-3,47.3,39.7,32.5,31.7,22.7,13.7,74,53,29,30.31,29.96,24,6,24,0.00
2013-2-4,54.0,41.8,25.0,33.8,28.8,21.7,87,61,44,30.02,29.80,11,5,20,0.00
2013-2-5,60.8,38.6,20.6,35.5,26.8,17.9,92,67,33,30.13,29.94,12,4,20,0.00
2013-2-6,62.6,43.4,23.4,37.9,30.3,20.3,93,64,36,30.16,29.93,20,5,21,0.00
2013-2-7,50.1,45.3,36.3,47.2,41.3,32.3,94,86,62,30.15,29.88,24,5,24,0.68
2013-2-8,39.9,33.5,29.1,32.0,28.6,25.6,88,82,69,30.39,30.20,10,4,18,0.01
2013-2-9,49.7,37.1,27.8,36.2,30.5,25.1,92,78,49,30.30,29.85,19,6,19,0.04
2013-2-10,57.7,48.2,40.1,48.7,36.8,26.4,93,67,40,29.83,29.49,43,13,43,0.03
2013-2-11,51.9,39.4,30.3,29.4,25.7,22.5,79,60,36,30.17,29.93,13,6,24,0.00
2013-2-12,41.7,32.0,22.0,30.3,24.5,18.7,91,75,52,30.20,30.01,5,1,7,0.00
2013-2-13,57.3,41.7,28.1,34.7,28.4,23.3,86,63,31,30.00,29.83,14,5,23,0.00
2013-2-14,54.2,43.0,31.5,34.8,28.9,24.6,82,59,39,30.13,29.85,17,6,22,0.00
2013-2-15,41.6,32.7,24.0,30.1,17.3,9.9,84,55,27,30.39,30.17,14,7,25,0.00
2013-2-16,38.1,28.9,17.5,23.0,19.1,13.6,86,67,48,30.37,30.15,17,3,17,0.00
2013-2-17,59.2,43.1,26.8,32.8,26.6,20.1,77,54,35,30.14,29.76,18,5,18,0.00
2013-2-18,55.4,45.2,28.5,49.5,35.0,19.9,89,68,49,30.04,29.53,31,10,37,0.06
2013-2-19,38.3,28.2,20.2,19.0,11.7,1.5,78,53,24,30.38,30.09,16,8,27,0.00
2013-2-20,27.1,21.6,16.7,15.8,11.0,6.1,70,63,57,30.45,30.26,16,5,17,0.00
2013-2-21,28.7,25.3,22.0,26.7,21.3,14.8,92,85,64,30.27,29.80,31,9,31,0.00
2013-2-22,30.7,26.0,16.9,28.3,22.6,13.7,93,87,78,30.12,29.82,18,5,21,0.33
2013-2-23,33.9,21.1,6.5,24.6,15.3,2.5,89,78,62,30.14,30.02,15,3,15,0.17
2013-2-24,47.7,32.0,7.1,31.0,21.1,3.3,91,66,44,30.12,29.97,16,4,16,0.04
2013-2-25,37.8,34.0,28.3,30.9,27.0,23.1,92,75,68,30.02,29.64,32,7,33,0.03
2013-2-26,33.0,32.8,32.7,31.0,30.9,30.7,93,92,92,29.65,29.53,21,9,21,0.00
2013-2-27,34.8,32.1,29.2,29.9,28.6,25.2,93,87,79,30.02,29.85,23,7,23,0.20
2013-2-28,35.0,31.3,27.6,27.6,25.9,23.7,85,80,72,30.23,30.05,12,7,23,0.13
2013-3-1,33.2,29.7,25.8,26.4,24.7,22.0,86,82,72,30.33,30.20,12,6,19,0.08
2013-3-2,36.6,27.9,20.9,23.3,19.1,15.7,85,70,50,30.41,30.25,13,4,15,0.46
2013-3-3,44.4,32.4,20.3,28.5,22.6,16.2,84,68,49,30.25,29.89,17,5,17,0.03
2013-3-4,50.3,40.6,33.6,32.9,30.0,26.9,77,66,51,29.90,29.69,15,5,18,0.00
2013-3-5,37.8,33.8,30.1,31.8,25.0,20.3,91,70,57,30.33,29.95,30,12,33,0.04
2013-3-6,36.5,29.4,23.5,22.9,20.2,17.0,81,69,55,30.48,30.36,12,4,19,0.00
2013-3-7,47.2,32.7,17.1,30.4,23.6,14.2,90,71,49,30.37,30.20,14,5,17,0.00
2013-3-8,54.2,41.6,28.2,38.8,32.0,24.9,90,70,51,30.28,30.09,15,5,15,0.05
2013-3-9,61.3,49.1,41.7,51.9,42.5,38.6,95,79,57,30.06,29.58,20,6,24,1.07
2013-3-10,56.4,46.9,33.0,51.9,43.9,29.9,95,90,60,29.83,29.58,27,8,32,0.34
2013-3-11,40.1,32.0,28.3,30.5,25.5,22.0,88,77,59,30.03,29.85,14,8,24,0.00
2013-3-12,51.9,36.8,26.3,33.8,25.4,22.7,87,66,37,30.32,30.05,19,7,31,0.00
2013-3-13,47.0,35.0,24.0,24.4,21.3,18.6,81,60,34,30.52,30.36,13,4,19,0.00
2013-3-14,73.8,51.6,33.8,42.8,32.2,23.0,67,50,29,30.38,30.06,16,6,30,0.00
2013-3-15,79.7,56.5,33.2,49.7,41.7,30.5,93,63,34,30.08,29.66,13,5,23,0.00
2013-3-16,58.2,44.7,37.8,46.8,36.3,29.3,83,73,63,30.08,29.67,29,7,29,0.00
2013-3-17,37.8,34.8,33.4,33.4,30.0,27.1,92,83,71,30.09,29.80,21,8,25,0.43
2013-3-18,55.9,43.1,34.6,41.6,31.8,20.7,94,70,33,30.06,29.77,26,7,29,0.01
2013-3-19,42.4,35.2,26.4,35.6,24.9,13.7,92,68,34,30.28,30.08,9,3,15,0.00
2013-3-20,40.7,33.5,25.9,32.9,16.3,7.5,93,53,25,30.42,30.19,16,8,26,0.00
2013-3-21,30.7,26.3,19.2,26.5,18.6,11.4,88,73,51,30.17,29.97,10,4,16,0.00
2013-3-22,35.1,32.8,30.3,33.0,29.9,26.9,92,89,86,30.05,29.98,9,4,15,0.04
2013-3-23,41.9,36.6,33.1,34.0,30.8,29.1,92,80,63,30.06,29.89,22,6,22,0.27
2013-3-24,35.6,32.2,28.6,32.0,29.4,23.7,93,89,82,30.06,29.76,27,10,27,0.43
2013-3-25,35.8,28.8,22.0,27.9,23.5,18.5,89,81,69,30.31,30.06,22,8,25,0.15
2013-3-26,40.8,31.4,20.5,28.6,22.7,17.6,90,71,51,30.45,30.35,10,4,14,0.01
2013-3-27,51.0,35.8,22.7,35.4,27.4,19.7,91,73,51,30.38,30.24,12,4,19,0.00
2013-3-28,65.2,51.5,37.9,42.2,36.6,32.4,81,59,36,30.27,30.14,10,3,11,0.00
2013-3-29,69.0,54.1,39.3,46.6,40.1,35.6,88,63,31,30.22,30.11,9,5,18,0.05
2013-3-30,61.6,52.6,45.9,54.6,47.3,37.2,92,82,65,30.12,29.86,20,4,24,0.10
2013-3-31,71.6,56.8,45.4,49.0,42.6,30.9,95,65,28,29.96,29.90,19,5,24,0.10
2013-4-1,50.6,42.8,35.1,34.1,24.0,15.5,81,50,25,30.29,29.97,11,6,21,0.00
2013-4-2,50.3,38.2,26.8,24.9,21.7,18.6,80,53,30,30.38,30.28,10,3,16,0.00
2013-4-3,53.4,41.5,28.8,27.0,23.2,17.6,82,52,27,30.41,30.26,11,5,24,0.00
2013-4-4,63.3,49.5,38.5,30.0,25.9,21.2,71,43,20,30.26,30.07,6,2,11,0.00
2013-4-5,70.4,53.7,34.1,42.3,35.7,27.5,84,53,33,30.19,29.92,10,4,17,0.00
2013-4-6,76.3,63.2,54.0,50.2,43.9,36.4,59,50,37,29.91,29.65,32,10,34,0.00
2013-4-7,75.8,59.9,42.2,54.7,47.3,38.9,91,66,40,29.87,29.66,18,3,18,0.01
2013-4-8,74.1,65.8,57.5,61.6,57.8,53.2,89,76,64,29.73,29.67,20,3,20,0.01
2013-4-9,74.1,71.5,69.8,62.0,61.2,60.6,73,70,65,29.71,29.68,21,5,21,0.00
2013-4-10,51.5,46.0,43.2,49.5,44.0,41.3,94,93,91,29.91,29.68,16,6,21,1.05
2013-4-11,45.3,39.2,35.4,40.6,33.3,29.5,93,80,60,29.82,29.74,15,8,29,0.00
2013-4-12,45.1,42.8,40.6,32.6,31.9,31.2,70,65,58,30.02,29.97,3,0,5,0.00
2013-4-13,65.4,47.8,30.2,45.0,35.9,27.6,93,67,40,30.10,29.77,18,3,18,0.00
2013-4-14,79.2,65.8,55.1,57.2,47.4,43.3,89,53,31,29.75,29.46,35,11,37,0.15
2013-4-15,57.0,50.2,46.3,50.2,42.9,37.1,93,77,60,29.97,29.69,24,4,24,0.28
2013-4-16,46.2,44.4,41.6,39.6,37.2,34.6,86,76,68,30.15,29.99,23,8,23,0.06
2013-4-17,61.8,52.4,46.3,58.7,49.7,40.2,95,91,79,30.09,29.62,13,4,19,0.43
2013-4-18,51.0,44.1,39.3,49.6,40.8,29.6,95,88,69,29.93,29.50,30,8,30,0.92
2013-4-19,58.0,44.7,33.8,30.6,27.5,22.0,76,54,27,30.10,29.91,15,10,31,0.00
2013-4-20,51.5,38.2,28.8,35.7,27.5,23.5,87,67,42,30.29,30.11,16,2,16,0.00
2013-4-21,69.0,57.7,46.8,44.6,39.1,32.0,69,51,33,30.26,30.11,30,8,30,0.00
2013-4-22,69.9,58.9,47.4,47.7,41.3,37.5,71,53,35,30.16,29.90,13,5,22,0.00
2013-4-23,54.3,39.9,36.0,48.5,37.1,33.6,93,90,75,30.15,29.95,17,7,25,0.67
2013-4-24,55.5,43.0,31.4,35.2,31.3,26.8,94,67,36,30.29,30.16,13,5,21,0.06
2013-4-25,67.8,52.9,36.7,42.4,37.0,31.4,82,57,33,30.34,30.17,8,4,16,0.00
2013-4-26,57.6,52.0,48.4,48.0,45.2,38.5,93,79,49,30.26,30.17,17,6,29,0.29
2013-4-27,52.2,48.7,47.5,50.2,47.1,45.9,95,94,92,30.22,30.09,10,4,15,0.37
2013-4-28,72.7,57.9,44.6,55.8,49.7,43.0,95,77,49,30.01,29.81,9,2,15,0.00
2013-4-29,83.4,69.4,55.4,64.4,56.6,48.2,80,65,48,29.83,29.64,18,8,22,0.00
2013-4-30,82.8,73.2,63.8,58.0,53.4,48.3,74,52,31,29.82,29.64,16,8,30,0.00
2013-5-1,85.0,71.8,56.3,63.1,54.1,44.6,72,55,38,30.09,29.82,24,5,26,0.00
2013-5-2,49.6,42.1,32.9,41.3,36.7,30.8,92,81,73,30.35,30.09,26,8,27,0.29
2013-5-3,38.2,35.0,32.7,36.1,33.1,30.9,94,92,90,30.30,29.96,21,6,23,0.85
2013-5-4,47.6,40.4,33.6,40.8,36.8,31.8,95,87,73,30.05,29.86,8,2,13,0.19
2013-5-5,65.3,52.8,44.6,52.7,47.2,41.1,95,82,62,30.11,30.01,18,3,18,0.01
2013-5-6,73.3,59.2,50.7,57.4,51.1,47.5,91,76,48,30.10,30.00,8,4,15,0.00
2013-5-7,79.8,63.9,45.3,58.2,50.1,43.1,95,66,34,30.07,29.96,6,1,12,0.00
2013-5-8,73.9,62.9,51.0,59.4,54.4,48.4,93,75,54,30.02,29.89,14,3,24,0.02
2013-5-9,64.7,62.1,60.2,60.7,59.6,58.0,93,92,83,29.88,29.83,22,1,22,0.62
2013-5-10,65.4,58.3,53.6,57.4,54.1,49.6,95,87,64,30.02,29.87,10,4,17,0.01
2013-5-11,71.7,60.3,44.4,54.9,39.0,28.8,95,52,24,30.22,30.04,30,7,30,0.00
2013-5-12,68.8,53.5,34.5,38.8,32.1,23.9,92,51,21,30.30,30.14,13,2,13,0.00
2013-5-13,76.7,61.7,42.7,55.6,46.8,35.4,93,61,37,30.17,29.96,9,4,17,0.00
2013-5-14,91.8,86.3,76.0,59.0,53.9,47.0,55,34,23,29.87,29.77,20,8,35,0.00
2013-5-15,86.0,75.1,65.5,67.5,60.4,53.6,80,61,48,29.88,29.78,13,5,21,0.00
2013-5-16,80.3,69.4,58.8,66.3,61.3,56.3,95,77,54,29.88,29.79,8,3,16,0.03
2013-5-17,78.0,67.3,56.8,64.5,60.2,54.5,95,79,58,29.93,29.84,5,1,9,0.00
2013-5-18,85.8,73.0,57.4,72.1,65.0,55.7,95,78,53,29.91,29.72,18,3,18,0.00
2013-5-19,85.5,74.4,63.0,70.3,65.7,58.8,92,75,56,29.82,29.51,24,6,35,0.56
2013-5-20,76.3,64.8,59.9,68.9,61.5,57.3,95,89,71,29.80,29.60,21,6,41,1.68
2013-5-21,71.6,64.7,56.8,62.5,59.1,54.2,94,83,67,29.78,29.65,7,3,17,0.00
2013-5-22,67.7,61.0,52.3,57.9,54.7,50.3,95,81,62,29.89,29.70,15,3,20,0.00
2013-5-23,69.7,60.8,52.0,59.3,54.2,48.6,91,79,65,30.18,29.92,9,3,26,0.00
2013-5-24,73.5,60.3,46.1,56.1,49.7,44.2,95,71,38,30.35,30.15,14,4,21,0.00
2013-5-25,80.1,68.6,56.5,67.8,58.5,47.7,89,70,59,30.18,30.00,19,4,19,0.00
2013-5-26,83.3,72.3,65.4,71.2,66.0,62.7,93,81,62,30.05,29.92,21,5,21,0.00
2013-5-27,77.1,70.4,62.0,70.6,64.8,59.4,95,83,73,29.96,29.67,34,5,34,1.54
2013-5-28,77.8,72.0,68.1,71.5,67.5,64.8,94,86,76,29.76,29.63,11,4,23,0.16
2013-5-29,82.9,74.6,64.6,71.4,66.5,61.6,93,77,60,29.83,29.64,27,6,31,0.00
2013-5-30,72.1,64.7,62.6,67.8,61.6,60.0,94,90,81,29.75,29.60,22,8,35,0.41
2013-5-31,77.7,66.1,59.2,72.8,63.8,57.5,96,92,83,29.84,29.63,23,4,32,2.13
2013-6-1,76.7,66.2,59.5,62.9,60.1,54.7,96,82,57,29.93,29.66,23,4,23,0.00
2013-6-2,65.6,60.1,54.1,57.8,54.3,49.3,92,81,69,30.07,29.93,13,3,14,0.00
2013-6-3,75.0,60.1,45.0,60.4,52.3,43.1,95,77,54,30.09,29.91,7,2,15,0.00
2013-6-4,71.8,64.0,58.7,66.3,59.8,55.3,93,86,77,30.02,29.88,9,4,16,0.09
2013-6-5,67.9,62.8,58.0,66.3,61.1,56.3,96,94,92,29.97,29.87,11,2,12,0.45
2013-6-6,78.0,67.2,57.5,65.4,60.6,54.6,96,81,53,29.94,29.88,5,2,13,0.00
2013-6-7,77.3,63.7,52.2,63.1,55.8,50.5,96,77,49,29.99,29.89,7,1,15,0.00
2013-6-8,79.2,66.7,50.4,61.7,56.4,48.5,95,72,47,29.94,29.77,18,4,20,0.00
2013-6-9,81.4,70.0,61.3,68.0,62.2,58.9,94,78,52,29.86,29.73,15,4,24,0.38
2013-6-10,87.5,71.5,57.6,69.6,61.9,55.5,95,74,48,29.87,29.80,7,1,15,0.00
2013-6-11,91.7,79.1,68.2,74.3,67.5,61.8,87,69,45,29.86,29.76,15,5,26,0.01
2013-6-12,90.5,82.0,73.0,77.0,71.6,66.6,86,71,56,29.82,29.72,20,6,33,0.00
2013-6-13,87.3,74.7,61.6,70.8,63.4,56.4,84,69,43,30.01,29.83,10,3,27,0.00
2013-6-14,87.8,74.8,62.2,74.2,66.4,60.2,95,77,53,30.02,29.87,11,3,21,0.00
2013-6-15,85.0,73.8,66.8,76.6,68.4,63.7,94,84,71,30.00,29.85,35,4,35,0.99
2013-6-16,83.5,73.8,65.9,76.5,70.1,64.1,95,89,73,29.94,29.86,10,2,10,0.01
2013-6-17,76.6,70.1,65.8,71.7,67.4,63.8,95,91,81,29.96,29.84,11,2,22,0.48
2013-6-18,87.7,73.0,62.3,75.8,66.5,60.8,96,82,49,30.00,29.93,6,1,14,0.00
2013-6-19,86.3,74.0,61.2,73.7,66.3,59.5,96,78,53,30.02,29.92,12,2,13,0.00
2013-6-20,86.8,77.8,67.1,75.2,69.3,64.7,93,76,59,30.01,29.88,16,5,22,0.00
2013-6-21,90.2,82.2,74.8,77.6,72.2,68.3,84,72,58,29.97,29.87,11,6,24,0.00
2013-6-22,90.2,81.7,70.3,76.9,72.0,67.4,93,73,56,29.98,29.82,21,5,21,0.00
2013-6-23,88.7,83.8,75.7,77.0,73.5,70.6,85,71,62,29.91,29.80,21,5,21,0.00
2013-6-24,89.2,81.1,73.1,76.4,71.1,68.0,88,73,56,29.94,29.76,23,6,23,0.00
2013-6-25,86.0,80.2,76.9,74.3,70.5,68.0,85,73,61,29.87,29.68,19,6,27,0.01
2013-6-26,99.2,84.0,72.8,81.6,72.0,66.8,87,69,44,29.80,29.69,10,4,20,0.00
2013-6-27,91.8,74.9,65.9,78.2,70.4,63.5,95,87,55,29.98,29.73,17,1,40,0.35
2013-6-28,89.0,75.4,66.1,77.8,68.3,62.1,96,80,52,29.96,29.80,9,3,21,0.26
2013-6-29,83.9,70.7,62.2,69.3,62.3,57.7,88,76,54,29.82,29.74,37,5,37,0.00
2013-6-30,82.3,70.3,60.3,68.3,61.9,57.0,90,76,52,29.95,29.82,20,4,20,0.00
2013-7-1,84.7,70.3,58.4,64.6,57.6,52.5,90,66,39,30.06,29.98,16,4,25,0.00
2013-7-2,84.7,70.0,55.8,66.2,57.9,52.6,91,68,36,30.09,30.01,14,2,18,0.00
2013-7-3,87.2,70.4,59.3,67.7,59.6,54.3,93,71,38,30.06,29.96,22,2,22,0.00
2013-7-4,85.6,68.5,55.3,68.7,58.7,52.9,95,74,39,30.04,29.96,11,1,11,0.00
2013-7-5,87.7,74.3,58.2,67.6,61.0,55.8,94,66,37,30.00,29.88,8,3,15,0.00
2013-7-6,88.7,77.9,65.0,70.6,64.7,60.6,90,65,45,29.96,29.87,8,3,17,0.00
2013-7-7,90.0,76.9,69.8,73.4,66.8,62.2,83,72,53,29.96,29.90,19,4,19,0.00
2013-7-8,92.2,82.3,72.6,76.3,69.9,64.8,78,67,52,30.00,29.92,8,4,16,0.00
2013-7-9,95.2,84.0,73.1,78.1,72.3,68.0,86,69,51,29.98,29.81,17,4,19,0.00
2013-7-10,94.0,83.7,73.1,80.5,70.9,63.2,80,66,48,29.96,29.85,8,2,19,0.00
2013-7-11,91.2,75.7,61.9,68.9,62.9,59.0,94,67,40,30.04,29.94,11,3,14,0.00
2013-7-12,88.6,74.8,61.8,66.3,61.2,58.5,91,65,40,30.05,29.95,10,4,18,0.00
2013-7-13,85.4,74.4,63.4,71.1,63.3,58.5,86,69,51,30.04,29.94,9,3,16,0.00
2013-7-14,89.7,75.2,60.3,69.9,62.4,57.8,95,68,36,30.05,29.98,17,4,17,0.00
2013-7-15,89.3,77.4,65.2,74.9,68.0,62.8,95,75,52,30.16,30.07,10,2,14,0.00
2013-7-16,93.7,80.7,68.5,76.4,69.7,65.7,95,72,44,30.22,30.14,10,2,13,0.00
2013-7-17,87.2,83.3,77.6,74.0,72.7,69.3,83,71,56,30.15,30.14,6,0,6,0.00
2013-7-18,97.7,83.1,69.4,76.8,69.8,65.6,95,69,38,30.17,29.94,5,1,13,0.00
2013-7-19,99.2,84.9,71.1,75.4,68.7,64.5,86,62,34,29.96,29.80,6,2,15,0.00
2013-7-20,85.4,79.9,72.4,74.8,70.9,66.8,91,74,57,29.90,29.81,19,1,19,0.00
2013-7-21,86.7,77.9,70.4,74.0,69.4,67.3,90,76,57,29.89,29.76,17,2,17,0.01
2013-7-22,94.7,80.4,66.9,75.5,69.7,64.7,95,72,45,29.81,29.71,18,2,20,0.00
2013-7-23,89.4,79.5,69.8,76.5,70.5,66.8,93,75,57,29.86,29.75,12,3,17,0.00
2013-7-24,91.6,75.4,65.6,67.1,62.1,58.6,84,66,38,30.00,29.87,6,2,14,0.00
2013-7-25,91.1,75.2,60.2,66.5,62.3,58.2,95,68,39,30.08,30.02,10,1,10,0.00
2013-7-26,81.6,73.1,66.6,74.3,68.4,58.9,95,85,65,30.01,29.93,12,1,12,0.20
2013-7-27,83.7,68.4,54.5,61.9,56.4,51.4,95,69,38,30.08,29.95,16,1,16,0.00
2013-7-28,85.2,66.8,53.1,60.9,54.1,47.1,94,68,28,30.04,29.99,14,0,14,0.00
2013-7-29,71.2,67.0,62.3,68.1,63.8,55.9,95,90,74,30.09,29.96,14,2,17,0.22
2013-7-30,81.3,75.0,69.8,76.7,72.2,68.3,96,91,79,30.00,29.94,7,1,12,0.33
2013-7-31,86.2,75.8,68.4,75.1,70.0,65.3,95,83,60,30.07,29.99,9,2,13,0.00
2013-8-1,90.8,75.4,62.7,74.0,66.2,61.2,96,76,47,30.07,29.93,7,1,11,0.00
2013-8-2,85.4,75.5,70.0,77.8,71.1,66.9,95,87,73,29.94,29.82,9,2,19,0.19
2013-8-3,77.5,75.6,71.9,70.9,70.4,69.4,92,84,80,30.06,30.01,2,0,6,0.00
2013-8-4,73.4,70.2,68.1,70.9,66.7,63.5,94,89,82,30.13,30.00,10,2,11,0.05
2013-8-5,86.4,76.8,68.0,77.8,72.2,66.3,96,86,72,30.02,29.79,7,2,13,0.03
2013-8-6,88.8,78.4,69.6,77.2,73.1,68.1,96,85,63,29.86,29.75,10,3,30,0.25
2013-8-7,85.3,77.2,71.2,77.6,73.4,69.5,96,88,68,29.90,29.73,9,1,21,0.69
2013-8-8,77.8,71.3,67.0,71.5,67.8,64.9,94,89,79,29.96,29.85,8,2,16,0.00
2013-8-9,75.8,70.8,66.7,72.3,68.4,64.9,96,92,86,30.04,29.95,8,1,9,0.01
2013-8-10,88.4,73.6,64.0,72.5,65.9,61.6,96,79,51,30.16,30.05,15,2,15,0.00
2013-8-11,86.2,73.6,58.6,72.2,65.3,56.9,96,77,52,30.11,29.98,11,1,11,0.00
2013-8-12,84.9,74.2,69.2,76.1,70.4,67.4,96,88,68,30.03,29.91,8,1,15,1.14
2013-8-13,84.4,71.9,64.9,70.7,65.4,62.4,96,81,54,30.09,29.97,6,1,18,0.00
2013-8-14,81.9,68.5,59.4,65.2,60.2,55.0,95,77,45,30.18,30.08,7,2,12,0.00
2013-8-15,73.8,63.3,57.0,62.7,57.7,54.9,95,83,61,30.12,30.00,13,2,13,0.00
2013-8-16,81.0,67.1,57.1,66.0,58.8,55.1,95,77,49,30.14,30.06,7,2,13,0.00
2013-8-17,82.1,65.4,51.6,66.2,57.1,49.8,96,77,44,30.19,30.08,16,2,16,0.00
2013-8-18,86.3,68.6,54.3,69.8,60.3,52.6,96,77,48,30.16,30.04,14,1,14,0.00
2013-8-19,86.4,72.5,57.1,70.8,62.4,55.4,96,73,46,30.09,29.97,9,1,12,0.00
2013-8-20,89.1,75.8,64.0,71.3,65.8,61.0,94,73,48,30.05,29.97,11,3,14,0.00
2013-8-21,91.7,77.4,64.4,72.3,67.5,61.9,94,74,46,30.06,29.97,7,3,13,0.00
2013-8-22,91.8,78.2,66.3,75.0,69.7,64.2,95,77,50,30.07,29.97,6,1,11,0.00
2013-8-23,92.2,77.6,65.6,77.6,68.7,63.8,96,77,48,30.06,29.97,4,0,13,0.00
2013-8-24,91.8,81.5,68.3,75.0,70.0,65.7,95,70,45,30.11,30.01,15,3,15,0.00
2013-8-25,93.3,80.2,66.2,76.8,69.5,63.6,95,72,49,30.18,30.07,14,3,14,0.00
2013-8-26,96.0,82.5,70.3,76.6,70.9,67.3,92,70,45,30.13,30.02,9,3,19,0.00
2013-8-27,95.7,81.2,69.2,71.7,67.9,65.9,92,67,40,30.04,29.94,8,3,22,0.00
2013-8-28,98.8,80.5,65.1,76.0,69.0,62.5,95,71,40,30.01,29.95,6,1,13,0.00
2013-8-29,97.2,82.5,68.5,75.6,70.8,66.4,95,71,43,30.01,29.90,7,2,12,0.00
2013-8-30,102.1,86.2,73.4,74.9,71.1,67.4,89,64,35,29.92,29.78,10,3,18,0.00
2013-8-31,96.7,82.7,74.7,78.4,73.8,70.0,90,76,48,29.87,29.79,9,2,20,0.00
2013-9-1,94.2,75.9,68.1,77.8,70.3,63.1,95,84,52,30.00,29.79,17,2,45,0.27
2013-9-2,89.6,70.3,60.2,68.8,62.1,57.9,94,78,43,30.08,29.96,11,1,11,0.00
2013-9-3,92.3,70.4,54.7,65.2,58.4,52.7,95,71,32,30.16,30.05,4,1,10,0.00
2013-9-4,94.1,70.8,53.4,69.5,59.1,51.4,96,72,31,30.22,30.10,9,0,12,0.00
2013-9-5,93.9,72.7,56.2,69.1,60.9,54.3,96,71,36,30.26,30.15,7,1,13,0.00
2013-9-6,90.8,85.9,75.2,65.3,60.7,58.8,59,43,36,30.17,30.03,9,3,15,0.00
2013-9-7,94.1,77.1,64.6,69.4,65.8,60.6,88,70,42,30.05,29.91,12,2,12,0.00
2013-9-8,101.8,85.7,72.5,72.6,68.6,66.1,82,60,34,29.94,29.84,19,3,19,0.00
2013-9-9,99.2,84.8,72.0,69.3,64.8,58.6,80,55,30,29.97,29.89,17,4,23,0.00
2013-9-10,99.0,82.2,68.1,69.5,64.7,62.6,87,58,35,30.10,29.98,9,3,21,0.00
2013-9-11,99.1,81.0,63.8,69.5,63.8,60.3,92,60,30,30.16,30.05,12,2,16,0.00
2013-9-12,90.8,76.8,69.3,70.2,65.7,53.6,89,70,42,30.17,30.07,12,2,16,0.00
2013-9-13,85.0,65.9,52.3,56.2,49.6,46.7,89,59,29,30.23,30.10,6,2,14,0.00
2013-9-14,81.7,63.4,46.3,52.7,48.5,43.9,94,63,31,30.19,30.03,12,2,12,0.00
2013-9-15,84.2,72.3,62.5,67.5,57.8,51.3,90,61,45,30.13,30.01,19,3,19,0.02
2013-9-16,62.0,61.9,61.8,58.8,58.5,58.1,90,89,88,30.26,30.24,5,0,5,0.07
2013-9-17,69.8,64.8,61.7,67.4,62.8,59.0,95,93,90,30.26,30.05,8,2,14,0.75
2013-9-18,89.4,75.2,64.3,72.7,68.1,62.8,96,80,56,30.05,29.89,16,5,23,0.00
2013-9-19,93.1,79.2,69.0,73.4,68.1,66.2,92,71,45,29.96,29.79,24,5,37,0.59
2013-9-20,71.2,65.2,56.7,66.4,59.3,52.7,95,82,61,30.07,29.91,9,3,20,0.02
2013-9-21,78.4,59.4,46.6,57.1,49.9,44.8,96,75,36,30.11,29.98,4,0,12,0.00
2013-9-22,72.8,51.9,45.8,58.7,48.2,44.0,96,88,48,30.08,30.01,11,1,11,0.00
2013-9-23,78.4,64.3,52.6,56.6,53.3,50.2,92,70,40,30.02,29.87,15,4,23,0.00
2013-9-24,78.0,65.6,57.0,63.1,57.7,54.7,93,76,53,29.91,29.83,7,3,16,0.00
2013-9-25,75.3,64.2,55.8,65.3,59.8,53.9,95,86,66,29.96,29.88,6,1,9,0.00
2013-9-26,85.0,70.2,57.0,65.2,60.6,55.0,95,74,45,30.00,29.91,12,4,19,0.00
2013-9-27,87.0,74.4,64.2,66.6,62.9,60.9,90,70,46,30.04,29.92,9,4,17,0.00
2013-9-28,71.2,65.2,51.8,67.9,60.8,49.8,94,86,73,30.13,29.89,19,4,21,0.45
2013-9-29,75.6,60.3,45.8,63.2,51.5,44.2,96,76,44,30.18,30.03,10,0,10,0.01
2013-9-30,75.7,60.6,45.2,64.6,55.7,43.6,96,85,63,30.03,29.90,8,2,16,0.00
2013-10-1,84.4,70.8,62.2,69.2,63.6,60.1,95,80,53,30.03,29.92,5,3,13,0.00
2013-10-2,85.2,70.2,59.5,72.5,64.6,57.6,96,84,58,30.07,29.93,15,2,15,0.00
2013-10-3,87.3,75.1,67.7,71.8,68.1,65.6,94,80,58,29.95,29.80,15,4,21,0.00
2013-10-4,88.6,77.1,68.0,72.2,67.4,64.9,91,73,50,29.89,29.81,17,6,26,0.00
2013-10-5,75.2,57.6,49.5,66.3,49.5,39.7,93,76,49,30.07,29.91,25,4,25,0.16
2013-10-6,64.3,51.7,41.1,47.0,42.3,36.2,85,71,49,30.03,29.94,27,5,27,0.00
2013-10-7,76.7,56.3,40.8,50.6,44.1,38.8,95,69,32,30.22,30.06,7,1,13,0.00
2013-10-8,77.5,60.0,41.9,51.8,46.2,39.5,95,65,32,30.20,30.10,13,3,17,0.00
2013-10-9,74.3,56.8,47.6,49.2,47.5,43.3,92,74,33,30.14,30.09,9,1,9,0.00
2013-10-10,80.3,61.3,43.4,57.4,49.9,41.2,95,70,37,30.16,29.98,8,2,15,0.00
2013-10-11,78.8,67.8,56.7,63.8,59.3,53.0,90,75,59,29.97,29.84,13,6,27,0.00
2013-10-12,77.5,61.6,47.9,62.8,49.8,41.4,94,69,31,30.29,29.90,21,3,26,0.07
2013-10-13,79.1,57.3,39.1,47.1,40.0,32.8,95,61,21,30.48,30.31,19,2,19,0.00
2013-10-14,70.7,56.2,43.2,58.5,45.7,38.2,90,70,37,30.38,30.00,20,4,20,0.02
2013-10-15,68.1,59.5,51.1,58.9,52.1,43.2,94,78,49,30.09,29.92,15,4,22,0.17
2013-10-16,66.8,51.0,39.6,47.5,42.1,36.7,92,74,41,30.18,30.06,7,2,16,0.01
2013-10-17,71.2,55.0,42.6,49.4,44.6,40.4,94,72,34,30.08,29.92,8,2,23,0.00
2013-10-18,58.1,43.7,37.3,42.5,38.4,35.1,94,83,48,30.14,30.00,7,3,15,0.19
2013-10-19,60.4,45.8,35.1,44.8,38.2,33.3,94,77,45,30.10,29.92,10,5,21,0.01
2013-10-20,72.2,56.3,44.2,44.3,40.4,38.1,81,58,32,29.93,29.81,24,5,24,0.00
2013-10-21,63.5,50.2,37.9,44.6,37.5,31.4,83,64,31,30.12,29.91,8,3,19,0.00
2013-10-22,68.1,51.9,40.2,48.3,39.6,33.9,79,64,39,30.06,29.89,19,6,28,0.00
2013-10-23,53.8,40.7,28.9,38.0,32.4,26.6,94,74,44,30.20,30.07,4,1,9,0.00
2013-10-24,59.2,43.9,32.3,36.6,30.2,24.4,90,63,29,30.44,30.17,10,3,20,0.00
2013-10-25,58.2,39.6,22.6,35.2,24.6,20.1,94,62,26,30.52,30.22,9,2,17,0.00
2013-10-26,71.2,52.5,41.3,45.2,35.4,28.9,80,55,28,30.19,30.10,8,4,19,0.00
2013-10-27,64.7,45.0,25.0,35.2,27.6,22.5,94,58,22,30.17,29.98,10,1,14,0.00
2013-10-28,65.4,46.1,29.3,53.7,40.0,26.6,93,80,65,30.18,30.03,7,1,13,0.00
2013-10-29,63.7,55.6,44.7,62.4,54.1,42.2,96,95,91,30.17,29.95,11,3,14,0.77
2013-10-30,68.4,65.7,63.3,65.4,63.5,61.3,96,93,89,29.98,29.73,26,6,44,0.49
2013-10-31,62.6,54.7,45.9,61.2,52.9,44.0,96,94,89,29.71,29.51,10,4,17,0.52
2013-11-1,66.4,49.5,40.2,50.7,42.9,38.6,96,80,47,29.97,29.64,10,4,20,0.02
2013-11-2,59.3,47.0,35.3,44.8,39.0,32.2,92,75,47,30.20,29.97,9,4,19,0.00
2013-11-3,60.9,47.0,30.3,40.5,35.7,28.3,94,68,42,30.21,29.98,24,5,24,0.01
2013-11-4,62.2,56.1,50.8,50.7,45.5,39.9,76,68,58,30.11,29.95,13,6,26,0.00
2013-11-5,60.0,56.3,52.7,58.0,54.1,50.2,94,92,80,30.13,29.87,21,6,21,0.38
2013-11-6,60.0,42.9,33.8,58.3,39.3,30.9,94,87,72,30.34,29.86,11,6,24,0.36
2013-11-7,61.4,42.4,30.2,43.9,32.8,27.1,94,73,39,30.42,30.35,11,3,24,0.00
2013-11-8,65.0,47.3,27.9,40.5,33.0,25.8,94,63,30,30.37,29.94,23,6,34,0.00
2013-11-9,72.8,53.7,40.0,42.9,37.0,32.3,84,57,25,30.30,30.01,15,2,18,0.00
2013-11-10,61.4,48.9,37.0,35.6,31.9,25.7,82,55,28,30.44,30.27,13,2,14,0.00
2013-11-11,65.5,51.4,32.0,51.5,40.7,20.9,82,67,56,30.55,30.16,29,5,29,0.00
2013-11-12,41.1,28.2,18.3,21.7,15.4,10.8,85,61,30,30.89,30.63,13,4,25,0.00
2013-11-13,49.2,32.6,16.4,20.8,16.6,13.2,87,56,28,30.75,30.32,14,6,22,0.00
2013-11-14,55.5,42.8,32.6,27.5,25.2,22.7,72,52,31,30.26,30.01,13,8,25,0.00
2013-11-15,48.4,45.4,43.5,36.3,32.5,27.2,67,61,52,30.02,29.98,12,5,16,0.00
2013-11-16,68.0,61.0,49.8,59.7,54.9,45.7,90,80,71,29.79,29.46,21,12,39,0.08
2013-11-17,71.7,63.0,46.0,61.7,41.4,17.4,82,50,14,29.97,29.33,49,11,49,0.08
2013-11-18,62.8,46.5,34.3,39.1,30.5,23.5,91,59,25,30.31,30.05,7,3,13,0.00
2013-11-19,62.8,45.1,27.8,35.0,27.6,23.5,91,56,23,30.29,30.06,18,4,21,0.00
2013-11-20,50.6,44.7,39.2,41.5,33.8,15.2,91,70,26,30.05,29.91,11,5,21,0.01
2013-11-21,50.4,45.7,34.1,48.0,42.8,32.3,94,90,71,30.34,29.99,22,3,22,0.00
2013-11-22,34.4,30.7,27.6,30.3,27.3,24.7,93,87,81,30.64,30.40,13,6,25,0.00
2013-11-23,34.4,25.2,14.8,23.6,16.7,9.6,90,71,44,30.83,30.64,22,5,22,0.00
2013-11-24,29.6,20.0,10.7,15.7,11.1,7.3,89,70,47,30.82,30.46,10,2,11,0.00
2013-11-25,38.4,32.8,27.8,24.0,19.5,14.8,75,58,50,30.41,30.18,9,4,15,0.00
2013-11-26,40.3,29.6,21.3,30.2,22.0,14.1,92,74,53,30.39,30.16,21,6,26,0.00
2013-11-27,36.6,24.1,15.0,16.2,12.3,9.9,82,62,36,30.46,30.23,12,3,12,0.00
2013-11-28,50.2,33.9,25.1,25.7,20.5,14.7,78,59,36,30.48,30.19,13,4,17,0.00
2013-11-29,52.2,35.0,19.0,30.7,24.4,16.0,91,68,42,30.52,30.28,8,3,13,0.00
2013-11-30,57.9,43.0,32.5,39.4,32.8,27.0,89,68,49,30.28,30.06,9,3,19,0.00
2013-12-1,60.3,43.5,24.5,41.0,34.1,22.2,95,72,47,30.12,29.92,8,0,8,0.00
2013-12-2,49.3,40.8,31.0,44.1,38.2,28.4,95,90,81,29.88,29.62,7,2,13,0.00
2013-12-3,60.5,47.7,38.1,50.7,43.7,36.5,96,87,65,29.61,29.50,8,3,14,0.01
2013-12-4,52.0,42.4,27.9,49.8,39.2,22.3,95,88,79,29.94,29.48,20,5,21,0.00
2013-12-5,26.1,22.3,19.6,20.2,13.2,10.6,78,68,56,30.36,30.00,15,6,22,0.00
2013-12-6,22.7,18.3,12.1,10.8,6.0,2.8,70,59,43,30.65,30.38,15,6,19,0.00
2013-12-7,25.4,17.0,5.2,9.3,5.8,1.1,84,62,43,30.76,30.42,16,4,16,0.00
2013-12-8,25.5,23.2,20.3,23.0,17.5,7.6,91,79,56,30.43,30.01,14,3,17,0.00
2013-12-9,22.4,16.7,12.5,16.8,11.1,6.0,90,79,64,30.42,30.23,9,4,16,0.00
2013-12-10,39.4,23.2,9.2,21.9,12.7,4.3,81,65,41,30.38,30.25,10,5,18,0.00
2013-12-11,33.4,22.3,11.2,19.6,12.1,2.8,89,66,40,30.67,30.27,12,4,22,0.00
2013-12-12,47.7,27.6,8.3,24.1,12.9,3.2,80,57,28,30.64,30.25,16,6,23,0.00
2013-12-13,36.0,33.1,25.4,34.2,30.0,20.1,94,88,74,30.21,29.88,12,4,17,0.00
2013-12-14,33.0,29.4,22.3,31.5,26.8,18.5,94,90,84,30.24,29.87,21,6,26,0.00
2013-12-15,48.8,32.2,18.5,36.3,25.9,15.6,91,78,58,30.24,29.99,19,4,19,0.00
2013-12-16,59.4,39.6,26.7,36.7,30.2,23.5,92,72,40,30.13,29.96,7,2,17,0.00
2013-12-17,53.0,35.2,23.0,35.7,26.2,20.5,94,72,41,30.28,30.14,11,3,21,0.00
2013-12-18,62.0,43.7,22.5,38.5,30.6,19.3,91,62,40,30.25,29.81,17,7,33,0.00
2013-12-19,58.4,53.6,47.8,50.3,45.5,37.4,82,74,65,29.80,29.64,12,6,22,0.00
2013-12-20,55.8,33.1,24.9,51.0,29.4,20.4,91,86,79,29.93,29.61,11,4,21,0.00
2013-12-21,30.7,27.5,24.7,28.8,25.0,21.6,93,90,87,29.90,29.58,22,4,22,0.00
2013-12-22,29.3,25.6,17.8,27.3,23.1,14.6,92,90,86,30.32,29.70,16,4,16,0.00
2013-12-23,18.1,11.7,4.7,14.2,7.9,0.9,89,84,79,30.67,30.40,5,3,13,0.00
2013-12-24,28.3,15.6,1.6,24.5,11.7,-2.1,92,84,76,30.66,30.27,14,3,14,0.09
2013-12-25,40.0,33.0,28.2,34.2,29.5,26.2,93,87,78,30.35,30.27,15,4,15,0.17
2013-12-26,47.6,33.5,20.2,34.4,27.4,17.7,93,79,57,30.36,30.20,12,5,23,0.16
2013-12-27,53.2,38.3,24.6,39.2,31.9,22.1,94,79,54,30.35,30.22,13,4,13,0.03
2013-12-28,55.0,43.1,33.7,35.0,31.8,28.2,81,65,42,30.20,29.88,16,6,24,0.00
2013-12-29,38.9,23.3,13.0,30.7,15.3,3.8,85,71,57,30.35,29.88,25,9,29,0.00
2013-12-30,29.2,17.6,7.2,15.1,7.5,2.3,86,66,42,30.36,30.22,12,3,17,0.00
2013-12-31,49.9,33.2,15.9,29.2,21.8,12.7,89,65,44,30.36,30.09,11,5,24,0.00
2014-1-1,36.9,28.2,14.6,24.5,21.0,10.6,85,74,59,30.23,30.03,21,5,21,0.00
2014-1-2,23.1,11.7,0.6,9.1,3.1,-3.8,82,69,49,30.54,30.28,15,4,19,0.12